sensor_id;sensor_type;location;lat;lon;timestamp;P1;durP1;ratioP1;P2;durP2;ratioP2
65033;SDS011;51601;51.356;12.458;2024-03-17T00:02:53;11.23;;;3.57;;
65033;SDS011;51601;51.356;12.458;2024-03-17T00:07:12;9.63;;;3.72;;
65033;SDS011;51601;51.356;12.458;2024-03-17T00:11:31;10.68;;;4.03;;
65033;SDS011;51601;51.356;12.458;2024-03-17T00:15:48;9.13;;;3.38;;
65033;SDS011;51601;51.356;12.458;2024-03-17T00:20:06;13.37;;;3.73;;
65033;SDS011;51601;51.356;12.458;2024-03-17T00:24:33;9.43;;;4.18;;
65033;SDS011;51601;51.356;12.458;2024-03-17T00:28:52;9.95;;;4.03;;
65033;SDS011;51601;51.356;12.458;2024-03-17T00:33:09;12.43;;;4.03;;
65033;SDS011;51601;51.356;12.458;2024-03-17T00:37:27;8.02;;;3.20;;
65033;SDS011;51601;51.356;12.458;2024-03-17T00:41:45;9.25;;;3.85;;
65033;SDS011;51601;51.356;12.458;2024-03-17T00:46:05;12.37;;;4.07;;
65033;SDS011;51601;51.356;12.458;2024-03-17T00:50:21;9.10;;;3.72;;
65033;SDS011;51601;51.356;12.458;2024-03-17T00:54:39;10.70;;;3.70;;
65033;SDS011;51601;51.356;12.458;2024-03-17T00:58:57;9.35;;;3.30;;
65033;SDS011;51601;51.356;12.458;2024-03-17T01:03:17;12.20;;;4.00;;
65033;SDS011;51601;51.356;12.458;2024-03-17T01:07:34;10.07;;;3.20;;
65033;SDS011;51601;51.356;12.458;2024-03-17T01:11:52;10.05;;;3.35;;
65033;SDS011;51601;51.356;12.458;2024-03-17T01:16:10;9.17;;;3.50;;
65033;SDS011;51601;51.356;12.458;2024-03-17T01:20:30;8.98;;;3.60;;
65033;SDS011;51601;51.356;12.458;2024-03-17T01:24:47;10.48;;;4.03;;
65033;SDS011;51601;51.356;12.458;2024-03-17T01:29:04;10.50;;;3.80;;
65033;SDS011;51601;51.356;12.458;2024-03-17T01:33:22;10.93;;;4.10;;
65033;SDS011;51601;51.356;12.458;2024-03-17T01:37:42;8.68;;;3.40;;
65033;SDS011;51601;51.356;12.458;2024-03-17T01:41:59;8.30;;;3.30;;
65033;SDS011;51601;51.356;12.458;2024-03-17T01:46:17;8.80;;;3.47;;
65033;SDS011;51601;51.356;12.458;2024-03-17T01:50:35;11.07;;;3.40;;
65033;SDS011;51601;51.356;12.458;2024-03-17T01:54:54;10.68;;;3.40;;
65033;SDS011;51601;51.356;12.458;2024-03-17T01:59:11;10.53;;;3.77;;
65033;SDS011;51601;51.356;12.458;2024-03-17T02:03:29;11.55;;;3.67;;
65033;SDS011;51601;51.356;12.458;2024-03-17T02:07:47;9.05;;;3.65;;
65033;SDS011;51601;51.356;12.458;2024-03-17T02:12:06;9.27;;;3.33;;
65033;SDS011;51601;51.356;12.458;2024-03-17T02:16:23;9.07;;;2.95;;
65033;SDS011;51601;51.356;12.458;2024-03-17T02:20:42;8.68;;;3.28;;
65033;SDS011;51601;51.356;12.458;2024-03-17T02:25:17;9.40;;;3.30;;
65033;SDS011;51601;51.356;12.458;2024-03-17T02:29:34;10.20;;;3.43;;
65033;SDS011;51601;51.356;12.458;2024-03-17T02:33:51;8.77;;;3.35;;
65033;SDS011;51601;51.356;12.458;2024-03-17T02:38:09;9.93;;;2.92;;
65033;SDS011;51601;51.356;12.458;2024-03-17T02:42:53;9.63;;;3.40;;
65033;SDS011;51601;51.356;12.458;2024-03-17T02:47:10;8.95;;;3.60;;
65033;SDS011;51601;51.356;12.458;2024-03-17T02:51:28;8.65;;;3.72;;
65033;SDS011;51601;51.356;12.458;2024-03-17T02:55:47;8.37;;;3.33;;
65033;SDS011;51601;51.356;12.458;2024-03-17T03:00:07;9.90;;;3.33;;
65033;SDS011;51601;51.356;12.458;2024-03-17T03:04:29;11.70;;;3.30;;
65033;SDS011;51601;51.356;12.458;2024-03-17T03:08:47;11.75;;;3.88;;
65033;SDS011;51601;51.356;12.458;2024-03-17T03:13:05;8.40;;;3.43;;
65033;SDS011;51601;51.356;12.458;2024-03-17T03:17:24;10.40;;;3.50;;
65033;SDS011;51601;51.356;12.458;2024-03-17T03:21:41;9.00;;;3.50;;
65033;SDS011;51601;51.356;12.458;2024-03-17T03:25:59;8.53;;;3.80;;
65033;SDS011;51601;51.356;12.458;2024-03-17T03:30:20;10.80;;;3.33;;
65033;SDS011;51601;51.356;12.458;2024-03-17T03:34:40;11.20;;;3.33;;
65033;SDS011;51601;51.356;12.458;2024-03-17T03:38:56;8.07;;;3.07;;
65033;SDS011;51601;51.356;12.458;2024-03-17T03:43:14;7.95;;;3.33;;
65033;SDS011;51601;51.356;12.458;2024-03-17T03:47:32;10.27;;;3.42;;
65033;SDS011;51601;51.356;12.458;2024-03-17T03:51:52;10.32;;;3.45;;
65033;SDS011;51601;51.356;12.458;2024-03-17T03:56:08;9.43;;;3.70;;
65033;SDS011;51601;51.356;12.458;2024-03-17T04:00:26;10.23;;;3.72;;
65033;SDS011;51601;51.356;12.458;2024-03-17T04:04:48;10.25;;;3.40;;
65033;SDS011;51601;51.356;12.458;2024-03-17T04:09:08;9.27;;;3.20;;
65033;SDS011;51601;51.356;12.458;2024-03-17T04:13:24;12.25;;;3.40;;
65033;SDS011;51601;51.356;12.458;2024-03-17T04:17:42;10.35;;;3.58;;
65033;SDS011;51601;51.356;12.458;2024-03-17T04:22:00;8.90;;;3.47;;
65033;SDS011;51601;51.356;12.458;2024-03-17T04:26:19;8.90;;;3.00;;
65033;SDS011;51601;51.356;12.458;2024-03-17T04:30:36;10.00;;;3.40;;
65033;SDS011;51601;51.356;12.458;2024-03-17T04:34:54;11.15;;;3.40;;
65033;SDS011;51601;51.356;12.458;2024-03-17T04:39:12;9.97;;;3.43;;
65033;SDS011;51601;51.356;12.458;2024-03-17T04:43:32;11.20;;;3.40;;
65033;SDS011;51601;51.356;12.458;2024-03-17T04:47:48;11.65;;;3.30;;
65033;SDS011;51601;51.356;12.458;2024-03-17T04:52:07;8.27;;;3.80;;
65033;SDS011;51601;51.356;12.458;2024-03-17T04:56:24;9.20;;;3.55;;
65033;SDS011;51601;51.356;12.458;2024-03-17T05:00:44;11.57;;;4.15;;
65033;SDS011;51601;51.356;12.458;2024-03-17T05:05:00;11.27;;;3.60;;
65033;SDS011;51601;51.356;12.458;2024-03-17T05:09:18;9.25;;;3.53;;
65033;SDS011;51601;51.356;12.458;2024-03-17T05:13:36;10.65;;;3.63;;
65033;SDS011;51601;51.356;12.458;2024-03-17T05:17:56;8.75;;;3.63;;
65033;SDS011;51601;51.356;12.458;2024-03-17T05:22:13;10.17;;;3.20;;
65033;SDS011;51601;51.356;12.458;2024-03-17T05:26:31;9.52;;;3.80;;
65033;SDS011;51601;51.356;12.458;2024-03-17T05:30:49;12.63;;;3.90;;
65033;SDS011;51601;51.356;12.458;2024-03-17T05:35:08;10.77;;;3.80;;
65033;SDS011;51601;51.356;12.458;2024-03-17T05:39:25;12.00;;;3.50;;
65033;SDS011;51601;51.356;12.458;2024-03-17T05:43:43;11.90;;;3.88;;
65033;SDS011;51601;51.356;12.458;2024-03-17T05:48:01;10.03;;;3.47;;
65033;SDS011;51601;51.356;12.458;2024-03-17T05:52:20;8.73;;;3.67;;
65033;SDS011;51601;51.356;12.458;2024-03-17T05:56:37;9.10;;;4.05;;
65033;SDS011;51601;51.356;12.458;2024-03-17T06:00:55;9.27;;;3.97;;
65033;SDS011;51601;51.356;12.458;2024-03-17T06:05:13;9.37;;;3.40;;
65033;SDS011;51601;51.356;12.458;2024-03-17T06:09:33;10.35;;;4.22;;
65033;SDS011;51601;51.356;12.458;2024-03-17T06:13:49;9.88;;;3.80;;
65033;SDS011;51601;51.356;12.458;2024-03-17T06:18:07;8.00;;;3.30;;
65033;SDS011;51601;51.356;12.458;2024-03-17T06:22:26;8.13;;;3.50;;
65033;SDS011;51601;51.356;12.458;2024-03-17T06:26:45;10.10;;;3.63;;
65033;SDS011;51601;51.356;12.458;2024-03-17T06:31:04;11.07;;;4.50;;
65033;SDS011;51601;51.356;12.458;2024-03-17T06:35:26;9.07;;;4.07;;
65033;SDS011;51601;51.356;12.458;2024-03-17T06:39:47;9.98;;;4.03;;
65033;SDS011;51601;51.356;12.458;2024-03-17T06:44:06;10.95;;;3.72;;
65033;SDS011;51601;51.356;12.458;2024-03-17T06:48:23;8.23;;;3.73;;
65033;SDS011;51601;51.356;12.458;2024-03-17T06:52:41;8.77;;;3.38;;
65033;SDS011;51601;51.356;12.458;2024-03-17T06:56:59;7.47;;;2.75;;
65033;SDS011;51601;51.356;12.458;2024-03-17T07:01:19;8.57;;;3.17;;
65033;SDS011;51601;51.356;12.458;2024-03-17T07:05:35;9.20;;;2.80;;
65033;SDS011;51601;51.356;12.458;2024-03-17T07:09:53;9.13;;;3.15;;
65033;SDS011;51601;51.356;12.458;2024-03-17T07:14:11;7.97;;;3.40;;
65033;SDS011;51601;51.356;12.458;2024-03-17T07:18:31;8.63;;;3.17;;
65033;SDS011;51601;51.356;12.458;2024-03-17T07:22:48;9.68;;;3.60;;
65033;SDS011;51601;51.356;12.458;2024-03-17T07:27:05;7.43;;;2.85;;
65033;SDS011;51601;51.356;12.458;2024-03-17T07:31:27;7.13;;;2.73;;
65033;SDS011;51601;51.356;12.458;2024-03-17T07:35:50;9.90;;;2.90;;
65033;SDS011;51601;51.356;12.458;2024-03-17T07:40:09;8.85;;;3.05;;
65033;SDS011;51601;51.356;12.458;2024-03-17T07:44:27;11.30;;;3.17;;
65033;SDS011;51601;51.356;12.458;2024-03-17T07:48:48;12.10;;;2.80;;
65033;SDS011;51601;51.356;12.458;2024-03-17T07:53:07;11.55;;;2.30;;
65033;SDS011;51601;51.356;12.458;2024-03-17T07:57:24;13.20;;;3.17;;
65033;SDS011;51601;51.356;12.458;2024-03-17T08:01:42;9.13;;;2.60;;
65033;SDS011;51601;51.356;12.458;2024-03-17T08:06:01;10.45;;;2.33;;
65033;SDS011;51601;51.356;12.458;2024-03-17T08:10:20;8.07;;;2.10;;
65033;SDS011;51601;51.356;12.458;2024-03-17T08:14:36;9.10;;;2.40;;
65033;SDS011;51601;51.356;12.458;2024-03-17T08:18:54;11.43;;;2.35;;
65033;SDS011;51601;51.356;12.458;2024-03-17T08:23:12;11.65;;;2.58;;
65033;SDS011;51601;51.356;12.458;2024-03-17T08:27:32;10.63;;;2.47;;
65033;SDS011;51601;51.356;12.458;2024-03-17T08:31:49;10.02;;;2.45;;
65033;SDS011;51601;51.356;12.458;2024-03-17T08:36:07;10.30;;;2.60;;
65033;SDS011;51601;51.356;12.458;2024-03-17T08:40:25;10.57;;;2.73;;
65033;SDS011;51601;51.356;12.458;2024-03-17T08:44:46;8.60;;;2.70;;
65033;SDS011;51601;51.356;12.458;2024-03-17T08:49:04;10.18;;;2.75;;
65033;SDS011;51601;51.356;12.458;2024-03-17T08:53:22;11.50;;;3.00;;
65033;SDS011;51601;51.356;12.458;2024-03-17T08:57:40;10.23;;;3.40;;
65033;SDS011;51601;51.356;12.458;2024-03-17T09:02:00;8.65;;;2.70;;
65033;SDS011;51601;51.356;12.458;2024-03-17T09:06:16;10.98;;;2.85;;
65033;SDS011;51601;51.356;12.458;2024-03-17T09:10:38;9.43;;;2.77;;
65033;SDS011;51601;51.356;12.458;2024-03-17T09:14:55;9.15;;;3.10;;
65033;SDS011;51601;51.356;12.458;2024-03-17T09:19:15;8.30;;;2.60;;
65033;SDS011;51601;51.356;12.458;2024-03-17T09:23:35;9.70;;;3.00;;
65033;SDS011;51601;51.356;12.458;2024-03-17T09:27:53;9.82;;;3.08;;
65033;SDS011;51601;51.356;12.458;2024-03-17T09:32:11;9.98;;;2.83;;
65033;SDS011;51601;51.356;12.458;2024-03-17T09:36:33;9.68;;;3.00;;
65033;SDS011;51601;51.356;12.458;2024-03-17T09:40:50;11.47;;;3.30;;
65033;SDS011;51601;51.356;12.458;2024-03-17T09:45:08;9.38;;;3.10;;
65033;SDS011;51601;51.356;12.458;2024-03-17T09:49:26;10.52;;;3.25;;
65033;SDS011;51601;51.356;12.458;2024-03-17T09:53:45;9.20;;;3.20;;
65033;SDS011;51601;51.356;12.458;2024-03-17T09:58:06;8.88;;;2.97;;
65033;SDS011;51601;51.356;12.458;2024-03-17T10:02:32;8.52;;;2.95;;
65033;SDS011;51601;51.356;12.458;2024-03-17T10:06:51;9.20;;;2.70;;
65033;SDS011;51601;51.356;12.458;2024-03-17T10:11:13;8.70;;;3.42;;
65033;SDS011;51601;51.356;12.458;2024-03-17T10:15:33;11.40;;;3.58;;
65033;SDS011;51601;51.356;12.458;2024-03-17T10:19:51;8.55;;;3.40;;
65033;SDS011;51601;51.356;12.458;2024-03-17T10:24:09;9.63;;;3.50;;
65033;SDS011;51601;51.356;12.458;2024-03-17T10:28:28;9.50;;;3.10;;
65033;SDS011;51601;51.356;12.458;2024-03-17T10:32:45;9.32;;;3.30;;
65033;SDS011;51601;51.356;12.458;2024-03-17T10:37:06;10.00;;;3.53;;
65033;SDS011;51601;51.356;12.458;2024-03-17T10:41:27;9.98;;;3.10;;
65033;SDS011;51601;51.356;12.458;2024-03-17T10:45:50;9.73;;;3.40;;
65033;SDS011;51601;51.356;12.458;2024-03-17T10:50:13;8.93;;;3.20;;
65033;SDS011;51601;51.356;12.458;2024-03-17T10:54:35;8.57;;;3.08;;
65033;SDS011;51601;51.356;12.458;2024-03-17T10:58:55;8.00;;;3.03;;
65033;SDS011;51601;51.356;12.458;2024-03-17T11:03:17;10.05;;;2.97;;
65033;SDS011;51601;51.356;12.458;2024-03-17T11:07:34;7.20;;;2.93;;
65033;SDS011;51601;51.356;12.458;2024-03-17T11:11:52;10.23;;;3.05;;
65033;SDS011;51601;51.356;12.458;2024-03-17T11:16:24;8.90;;;3.10;;
65033;SDS011;51601;51.356;12.458;2024-03-17T11:20:42;11.07;;;3.63;;
65033;SDS011;51601;51.356;12.458;2024-03-17T11:29:56;9.15;;;3.20;;
65033;SDS011;51601;51.356;12.458;2024-03-17T11:34:51;14.90;;;5.40;;
65033;SDS011;51601;51.356;12.458;2024-03-17T11:44:38;9.57;;;4.05;;
65033;SDS011;51601;51.356;12.458;2024-03-17T11:48:59;11.00;;;3.63;;
65033;SDS011;51601;51.356;12.458;2024-03-17T11:53:20;8.73;;;3.70;;
65033;SDS011;51601;51.356;12.458;2024-03-17T11:57:40;11.15;;;4.18;;
65033;SDS011;51601;51.356;12.458;2024-03-17T12:02:00;8.50;;;3.63;;
65033;SDS011;51601;51.356;12.458;2024-03-17T12:06:18;11.87;;;4.10;;
65033;SDS011;51601;51.356;12.458;2024-03-17T12:10:36;9.00;;;4.20;;
65033;SDS011;51601;51.356;12.458;2024-03-17T12:15:11;9.35;;;4.60;;
65033;SDS011;51601;51.356;12.458;2024-03-17T12:19:33;10.17;;;5.10;;
65033;SDS011;51601;51.356;12.458;2024-03-17T12:23:51;10.07;;;4.13;;
65033;SDS011;51601;51.356;12.458;2024-03-17T12:28:12;11.10;;;6.70;;
65033;SDS011;51601;51.356;12.458;2024-03-17T12:32:35;13.27;;;6.57;;
65033;SDS011;51601;51.356;12.458;2024-03-17T12:36:52;9.30;;;4.40;;
65033;SDS011;51601;51.356;12.458;2024-03-17T12:41:16;8.23;;;4.00;;
65033;SDS011;51601;51.356;12.458;2024-03-17T12:45:34;11.05;;;5.50;;
65033;SDS011;51601;51.356;12.458;2024-03-17T12:49:54;10.07;;;5.67;;
65033;SDS011;51601;51.356;12.458;2024-03-17T12:54:13;10.60;;;5.50;;
65033;SDS011;51601;51.356;12.458;2024-03-17T12:58:34;11.68;;;5.70;;
65033;SDS011;51601;51.356;12.458;2024-03-17T13:03:07;11.73;;;5.23;;
65033;SDS011;51601;51.356;12.458;2024-03-17T13:07:27;11.32;;;4.22;;
65033;SDS011;51601;51.356;12.458;2024-03-17T13:11:44;9.70;;;4.80;;
65033;SDS011;51601;51.356;12.458;2024-03-17T13:16:02;8.55;;;4.43;;
65033;SDS011;51601;51.356;12.458;2024-03-17T13:20:21;10.93;;;4.30;;
65033;SDS011;51601;51.356;12.458;2024-03-17T13:24:39;11.77;;;5.72;;
65033;SDS011;51601;51.356;12.458;2024-03-17T13:28:56;10.20;;;3.40;;
65033;SDS011;51601;51.356;12.458;2024-03-17T13:33:14;8.93;;;3.80;;
65033;SDS011;51601;51.356;12.458;2024-03-17T13:37:32;10.07;;;3.72;;
65033;SDS011;51601;51.356;12.458;2024-03-17T13:41:51;6.78;;;3.38;;
65033;SDS011;51601;51.356;12.458;2024-03-17T13:46:11;8.30;;;3.30;;
65033;SDS011;51601;51.356;12.458;2024-03-17T13:50:29;8.55;;;3.00;;
65033;SDS011;51601;51.356;12.458;2024-03-17T13:54:48;9.77;;;4.22;;
65033;SDS011;51601;51.356;12.458;2024-03-17T13:59:07;10.35;;;3.67;;
65033;SDS011;51601;51.356;12.458;2024-03-17T14:03:23;12.53;;;4.10;;
65033;SDS011;51601;51.356;12.458;2024-03-17T14:07:42;9.13;;;3.50;;
65033;SDS011;51601;51.356;12.458;2024-03-17T14:11:59;9.13;;;3.60;;
65033;SDS011;51601;51.356;12.458;2024-03-17T14:16:19;8.03;;;3.33;;
65033;SDS011;51601;51.356;12.458;2024-03-17T14:20:36;10.00;;;3.50;;
65033;SDS011;51601;51.356;12.458;2024-03-17T14:24:54;9.43;;;3.35;;
65033;SDS011;51601;51.356;12.458;2024-03-17T14:29:12;9.10;;;3.47;;
65033;SDS011;51601;51.356;12.458;2024-03-17T14:33:34;10.52;;;4.13;;
65033;SDS011;51601;51.356;12.458;2024-03-17T14:37:51;11.50;;;3.60;;
65033;SDS011;51601;51.356;12.458;2024-03-17T14:42:09;11.75;;;4.40;;
65033;SDS011;51601;51.356;12.458;2024-03-17T14:46:27;9.83;;;3.87;;
65033;SDS011;51601;51.356;12.458;2024-03-17T14:50:47;8.88;;;3.67;;
65033;SDS011;51601;51.356;12.458;2024-03-17T14:55:07;9.98;;;3.92;;
65033;SDS011;51601;51.356;12.458;2024-03-17T14:59:28;9.37;;;3.97;;
65033;SDS011;51601;51.356;12.458;2024-03-17T15:03:45;7.97;;;3.60;;
65033;SDS011;51601;51.356;12.458;2024-03-17T15:08:05;10.27;;;3.90;;
65033;SDS011;51601;51.356;12.458;2024-03-17T15:12:25;10.53;;;3.80;;
65033;SDS011;51601;51.356;12.458;2024-03-17T15:16:43;11.35;;;4.15;;
65033;SDS011;51601;51.356;12.458;2024-03-17T15:21:01;8.35;;;3.78;;
65033;SDS011;51601;51.356;12.458;2024-03-17T15:25:20;13.00;;;4.00;;
65033;SDS011;51601;51.356;12.458;2024-03-17T15:29:40;8.97;;;3.70;;
65033;SDS011;51601;51.356;12.458;2024-03-17T15:33:58;9.88;;;4.03;;
65033;SDS011;51601;51.356;12.458;2024-03-17T15:38:16;10.60;;;4.28;;
65033;SDS011;51601;51.356;12.458;2024-03-17T15:42:36;8.47;;;3.40;;
65033;SDS011;51601;51.356;12.458;2024-03-17T15:46:53;10.13;;;3.80;;
65033;SDS011;51601;51.356;12.458;2024-03-17T15:51:10;11.07;;;5.07;;
65033;SDS011;51601;51.356;12.458;2024-03-17T15:55:28;9.20;;;3.90;;
65033;SDS011;51601;51.356;12.458;2024-03-17T15:59:48;9.15;;;4.22;;
65033;SDS011;51601;51.356;12.458;2024-03-17T16:04:04;8.95;;;3.92;;
65033;SDS011;51601;51.356;12.458;2024-03-17T16:08:22;9.55;;;4.07;;
65033;SDS011;51601;51.356;12.458;2024-03-17T16:12:40;11.93;;;4.03;;
65033;SDS011;51601;51.356;12.458;2024-03-17T16:17:00;10.60;;;3.95;;
65033;SDS011;51601;51.356;12.458;2024-03-17T16:21:20;10.20;;;3.83;;
65033;SDS011;51601;51.356;12.458;2024-03-17T16:25:38;10.23;;;4.00;;
65033;SDS011;51601;51.356;12.458;2024-03-17T16:29:56;11.10;;;4.30;;
65033;SDS011;51601;51.356;12.458;2024-03-17T16:34:18;10.38;;;3.83;;
65033;SDS011;51601;51.356;12.458;2024-03-17T16:38:41;10.13;;;4.60;;
65033;SDS011;51601;51.356;12.458;2024-03-17T16:42:59;10.63;;;4.30;;
65033;SDS011;51601;51.356;12.458;2024-03-17T16:47:25;8.98;;;3.97;;
65033;SDS011;51601;51.356;12.458;2024-03-17T16:51:46;13.93;;;4.43;;
65033;SDS011;51601;51.356;12.458;2024-03-17T16:56:06;11.50;;;4.57;;
65033;SDS011;51601;51.356;12.458;2024-03-17T17:00:24;10.70;;;4.30;;
65033;SDS011;51601;51.356;12.458;2024-03-17T17:04:42;11.90;;;4.68;;
65033;SDS011;51601;51.356;12.458;2024-03-17T17:09:01;12.67;;;4.30;;
65033;SDS011;51601;51.356;12.458;2024-03-17T17:13:18;9.55;;;4.05;;
65033;SDS011;51601;51.356;12.458;2024-03-17T17:17:36;10.43;;;4.45;;
65033;SDS011;51601;51.356;12.458;2024-03-17T17:21:54;12.27;;;4.47;;
65033;SDS011;51601;51.356;12.458;2024-03-17T17:26:16;12.55;;;4.60;;
65033;SDS011;51601;51.356;12.458;2024-03-17T17:30:33;10.63;;;4.75;;
65033;SDS011;51601;51.356;12.458;2024-03-17T17:34:51;12.57;;;5.30;;
65033;SDS011;51601;51.356;12.458;2024-03-17T17:39:09;16.30;;;5.60;;
65033;SDS011;51601;51.356;12.458;2024-03-17T17:43:29;17.60;;;5.75;;
65033;SDS011;51601;51.356;12.458;2024-03-17T17:47:45;13.63;;;5.72;;
65033;SDS011;51601;51.356;12.458;2024-03-17T17:52:04;16.57;;;6.40;;
65033;SDS011;51601;51.356;12.458;2024-03-17T17:56:21;13.95;;;6.82;;
65033;SDS011;51601;51.356;12.458;2024-03-17T18:00:41;14.65;;;7.07;;
65033;SDS011;51601;51.356;12.458;2024-03-17T18:04:58;13.67;;;6.87;;
65033;SDS011;51601;51.356;12.458;2024-03-17T18:09:16;14.57;;;7.00;;
65033;SDS011;51601;51.356;12.458;2024-03-17T18:13:37;17.73;;;7.28;;
65033;SDS011;51601;51.356;12.458;2024-03-17T18:17:56;16.10;;;6.88;;
65033;SDS011;51601;51.356;12.458;2024-03-17T18:22:13;15.80;;;7.10;;
65033;SDS011;51601;51.356;12.458;2024-03-17T18:26:31;14.70;;;7.20;;
65033;SDS011;51601;51.356;12.458;2024-03-17T18:30:49;16.63;;;6.60;;
65033;SDS011;51601;51.356;12.458;2024-03-17T18:35:09;17.07;;;6.27;;
65033;SDS011;51601;51.356;12.458;2024-03-17T18:39:25;17.63;;;5.72;;
65033;SDS011;51601;51.356;12.458;2024-03-17T18:43:43;13.65;;;5.93;;
65033;SDS011;51601;51.356;12.458;2024-03-17T18:48:04;15.80;;;6.00;;
65033;SDS011;51601;51.356;12.458;2024-03-17T18:52:24;15.27;;;6.18;;
65033;SDS011;51601;51.356;12.458;2024-03-17T18:56:41;14.25;;;6.43;;
65033;SDS011;51601;51.356;12.458;2024-03-17T19:00:59;14.13;;;5.80;;
65033;SDS011;51601;51.356;12.458;2024-03-17T19:05:17;14.93;;;5.10;;
65033;SDS011;51601;51.356;12.458;2024-03-17T19:09:36;13.05;;;5.18;;
65033;SDS011;51601;51.356;12.458;2024-03-17T19:13:53;11.48;;;4.80;;
65033;SDS011;51601;51.356;12.458;2024-03-17T19:18:11;11.40;;;5.23;;
65033;SDS011;51601;51.356;12.458;2024-03-17T19:22:29;12.93;;;5.05;;
65033;SDS011;51601;51.356;12.458;2024-03-17T19:26:51;16.67;;;5.53;;
65033;SDS011;51601;51.356;12.458;2024-03-17T19:31:08;11.77;;;5.00;;
65033;SDS011;51601;51.356;12.458;2024-03-17T19:35:26;12.57;;;4.90;;
65033;SDS011;51601;51.356;12.458;2024-03-17T19:39:44;15.30;;;5.43;;
65033;SDS011;51601;51.356;12.458;2024-03-17T19:44:04;12.82;;;4.93;;
65033;SDS011;51601;51.356;12.458;2024-03-17T19:48:20;12.10;;;4.60;;
65033;SDS011;51601;51.356;12.458;2024-03-17T19:52:38;12.25;;;4.80;;
65033;SDS011;51601;51.356;12.458;2024-03-17T19:56:59;12.48;;;4.60;;
65033;SDS011;51601;51.356;12.458;2024-03-17T20:01:19;10.03;;;5.00;;
65033;SDS011;51601;51.356;12.458;2024-03-17T20:05:39;13.27;;;4.90;;
65033;SDS011;51601;51.356;12.458;2024-03-17T20:09:57;20.30;;;5.47;;
65033;SDS011;51601;51.356;12.458;2024-03-17T20:14:15;14.60;;;6.13;;
65033;SDS011;51601;51.356;12.458;2024-03-17T20:18:34;12.38;;;5.18;;
65033;SDS011;51601;51.356;12.458;2024-03-17T20:22:51;15.20;;;6.05;;
65033;SDS011;51601;51.356;12.458;2024-03-17T20:27:09;16.58;;;5.93;;
65033;SDS011;51601;51.356;12.458;2024-03-17T20:31:27;14.10;;;5.30;;
65033;SDS011;51601;51.356;12.458;2024-03-17T20:35:46;11.80;;;4.90;;
65033;SDS011;51601;51.356;12.458;2024-03-17T20:40:03;13.98;;;5.20;;
65033;SDS011;51601;51.356;12.458;2024-03-17T20:44:24;15.77;;;6.57;;
65033;SDS011;51601;51.356;12.458;2024-03-17T20:48:42;15.27;;;5.25;;
65033;SDS011;51601;51.356;12.458;2024-03-17T20:53:02;16.55;;;5.65;;
65033;SDS011;51601;51.356;12.458;2024-03-17T20:57:18;13.13;;;5.37;;
65033;SDS011;51601;51.356;12.458;2024-03-17T21:01:37;12.25;;;5.03;;
65033;SDS011;51601;51.356;12.458;2024-03-17T21:05:54;12.48;;;5.05;;
65033;SDS011;51601;51.356;12.458;2024-03-17T21:10:14;11.23;;;4.63;;
65033;SDS011;51601;51.356;12.458;2024-03-17T21:14:33;11.30;;;4.07;;
65033;SDS011;51601;51.356;12.458;2024-03-17T21:18:52;9.75;;;4.57;;
65033;SDS011;51601;51.356;12.458;2024-03-17T21:23:10;12.25;;;3.85;;
65033;SDS011;51601;51.356;12.458;2024-03-17T21:27:29;11.07;;;4.23;;
65033;SDS011;51601;51.356;12.458;2024-03-17T21:31:46;11.50;;;3.85;;
65033;SDS011;51601;51.356;12.458;2024-03-17T21:36:04;9.82;;;3.63;;
65033;SDS011;51601;51.356;12.458;2024-03-17T21:40:31;12.63;;;3.77;;
65033;SDS011;51601;51.356;12.458;2024-03-17T21:44:51;11.60;;;3.88;;
65033;SDS011;51601;51.356;12.458;2024-03-17T21:49:14;8.40;;;3.70;;
65033;SDS011;51601;51.356;12.458;2024-03-17T21:53:35;12.50;;;3.60;;
65033;SDS011;51601;51.356;12.458;2024-03-17T21:57:57;10.83;;;3.10;;
65033;SDS011;51601;51.356;12.458;2024-03-17T22:02:18;8.60;;;2.85;;
65033;SDS011;51601;51.356;12.458;2024-03-17T22:06:35;12.27;;;3.20;;
65033;SDS011;51601;51.356;12.458;2024-03-17T22:10:54;10.93;;;3.17;;
65033;SDS011;51601;51.356;12.458;2024-03-17T22:15:17;19.70;;;4.43;;
65033;SDS011;51601;51.356;12.458;2024-03-17T22:19:37;9.38;;;3.00;;
65033;SDS011;51601;51.356;12.458;2024-03-17T22:24:00;10.03;;;3.17;;
65033;SDS011;51601;51.356;12.458;2024-03-17T22:28:18;9.43;;;3.17;;
65033;SDS011;51601;51.356;12.458;2024-03-17T22:32:39;10.27;;;3.10;;
65033;SDS011;51601;51.356;12.458;2024-03-17T22:37:01;9.82;;;3.03;;
65033;SDS011;51601;51.356;12.458;2024-03-17T22:41:21;14.53;;;3.80;;
65033;SDS011;51601;51.356;12.458;2024-03-17T22:45:39;10.45;;;2.95;;
65033;SDS011;51601;51.356;12.458;2024-03-17T22:49:57;8.05;;;3.05;;
65033;SDS011;51601;51.356;12.458;2024-03-17T22:54:16;8.30;;;3.00;;
65033;SDS011;51601;51.356;12.458;2024-03-17T22:58:33;9.88;;;2.80;;
65033;SDS011;51601;51.356;12.458;2024-03-17T23:02:57;9.40;;;3.30;;
65033;SDS011;51601;51.356;12.458;2024-03-17T23:07:18;10.13;;;2.90;;
65033;SDS011;51601;51.356;12.458;2024-03-17T23:11:39;8.20;;;2.20;;
65033;SDS011;51601;51.356;12.458;2024-03-17T23:16:00;9.32;;;2.30;;
65033;SDS011;51601;51.356;12.458;2024-03-17T23:20:20;12.52;;;3.08;;
65033;SDS011;51601;51.356;12.458;2024-03-17T23:24:37;9.07;;;2.00;;
65033;SDS011;51601;51.356;12.458;2024-03-17T23:28:56;12.13;;;2.83;;
65033;SDS011;51601;51.356;12.458;2024-03-17T23:33:13;7.53;;;2.10;;
65033;SDS011;51601;51.356;12.458;2024-03-17T23:37:31;10.77;;;3.43;;
65033;SDS011;51601;51.356;12.458;2024-03-17T23:41:49;11.70;;;2.38;;
65033;SDS011;51601;51.356;12.458;2024-03-17T23:46:08;12.23;;;2.92;;
65033;SDS011;51601;51.356;12.458;2024-03-17T23:50:26;5.33;;;1.90;;
65033;SDS011;51601;51.356;12.458;2024-03-17T23:54:46;7.20;;;2.70;;
65033;SDS011;51601;51.356;12.458;2024-03-17T23:59:04;6.43;;;2.38;;
